sensor_id;sensor_type;location;lat;lon;timestamp;temperature;humidity
8248;DHT22;4164;49.844;8.830;2023-09-19T00:01:40;17.10;1.00
8248;DHT22;4164;49.844;8.830;2023-09-19T00:04:07;17.10;1.00
8248;DHT22;4164;49.844;8.830;2023-09-19T00:06:38;17.10;1.00
8248;DHT22;4164;49.844;8.830;2023-09-19T00:09:03;17.10;1.00
8248;DHT22;4164;49.844;8.830;2023-09-19T00:11:29;17.00;1.00
8248;DHT22;4164;49.844;8.830;2023-09-19T00:13:55;17.00;1.00
8248;DHT22;4164;49.844;8.830;2023-09-19T00:16:23;17.00;1.00
8248;DHT22;4164;49.844;8.830;2023-09-19T00:18:50;17.00;1.00
8248;DHT22;4164;49.844;8.830;2023-09-19T00:21:15;17.10;1.00
8248;DHT22;4164;49.844;8.830;2023-09-19T00:23:41;17.10;1.00
8248;DHT22;4164;49.844;8.830;2023-09-19T00:26:07;17.10;1.00
8248;DHT22;4164;49.844;8.830;2023-09-19T00:28:32;17.10;1.00
8248;DHT22;4164;49.844;8.830;2023-09-19T00:30:58;17.10;1.00
8248;DHT22;4164;49.844;8.830;2023-09-19T00:33:27;17.10;1.00
8248;DHT22;4164;49.844;8.830;2023-09-19T00:35:56;17.10;1.00
8248;DHT22;4164;49.844;8.830;2023-09-19T00:38:23;17.10;1.00
8248;DHT22;4164;49.844;8.830;2023-09-19T00:40:53;17.10;1.00
8248;DHT22;4164;49.844;8.830;2023-09-19T00:43:19;17.10;1.00
8248;DHT22;4164;49.844;8.830;2023-09-19T00:45:48;17.00;1.00
8248;DHT22;4164;49.844;8.830;2023-09-19T00:48:15;17.10;1.00
8248;DHT22;4164;49.844;8.830;2023-09-19T00:50:45;17.10;1.00
8248;DHT22;4164;49.844;8.830;2023-09-19T00:53:14;17.10;1.00
8248;DHT22;4164;49.844;8.830;2023-09-19T00:55:40;17.20;1.00
8248;DHT22;4164;49.844;8.830;2023-09-19T00:58:10;17.20;1.00
8248;DHT22;4164;49.844;8.830;2023-09-19T01:00:36;17.30;1.00
8248;DHT22;4164;49.844;8.830;2023-09-19T01:03:02;17.30;1.00
8248;DHT22;4164;49.844;8.830;2023-09-19T01:05:29;17.20;1.00
8248;DHT22;4164;49.844;8.830;2023-09-19T01:07:57;17.20;1.00
8248;DHT22;4164;49.844;8.830;2023-09-19T01:10:22;17.30;1.00
8248;DHT22;4164;49.844;8.830;2023-09-19T01:21:09;17.40;1.00
8248;DHT22;4164;49.844;8.830;2023-09-19T01:24:07;17.40;1.00
8248;DHT22;4164;49.844;8.830;2023-09-19T01:29:38;17.40;1.00
8248;DHT22;4164;49.844;8.830;2023-09-19T01:32:06;17.50;1.00
8248;DHT22;4164;49.844;8.830;2023-09-19T01:34:53;17.50;1.00
8248;DHT22;4164;49.844;8.830;2023-09-19T01:37:21;17.50;1.00
8248;DHT22;4164;49.844;8.830;2023-09-19T01:39:57;17.50;1.00
8248;DHT22;4164;49.844;8.830;2023-09-19T01:42:42;17.50;1.00
8248;DHT22;4164;49.844;8.830;2023-09-19T01:47:49;17.50;1.00
8248;DHT22;4164;49.844;8.830;2023-09-19T01:53:10;17.40;1.00
8248;DHT22;4164;49.844;8.830;2023-09-19T01:55:43;17.40;1.00
8248;DHT22;4164;49.844;8.830;2023-09-19T01:58:33;17.40;1.00
8248;DHT22;4164;49.844;8.830;2023-09-19T02:01:00;17.50;1.00
8248;DHT22;4164;49.844;8.830;2023-09-19T02:03:26;17.50;1.00
8248;DHT22;4164;49.844;8.830;2023-09-19T02:05:57;17.50;1.00
8248;DHT22;4164;49.844;8.830;2023-09-19T02:08:23;17.50;1.00
8248;DHT22;4164;49.844;8.830;2023-09-19T02:10:52;17.30;1.00
8248;DHT22;4164;49.844;8.830;2023-09-19T02:13:22;17.20;1.00
8248;DHT22;4164;49.844;8.830;2023-09-19T02:15:50;17.20;1.00
8248;DHT22;4164;49.844;8.830;2023-09-19T02:18:15;17.20;1.00
8248;DHT22;4164;49.844;8.830;2023-09-19T02:20:42;17.20;1.00
8248;DHT22;4164;49.844;8.830;2023-09-19T02:23:09;17.10;1.00
8248;DHT22;4164;49.844;8.830;2023-09-19T02:25:35;17.10;1.00
8248;DHT22;4164;49.844;8.830;2023-09-19T02:28:01;17.10;1.00
8248;DHT22;4164;49.844;8.830;2023-09-19T02:30:29;17.10;1.00
8248;DHT22;4164;49.844;8.830;2023-09-19T02:32:55;17.10;1.00
8248;DHT22;4164;49.844;8.830;2023-09-19T02:35:21;17.10;1.00
8248;DHT22;4164;49.844;8.830;2023-09-19T02:37:47;17.20;1.00
8248;DHT22;4164;49.844;8.830;2023-09-19T02:40:13;17.20;1.00
8248;DHT22;4164;49.844;8.830;2023-09-19T02:42:48;17.20;1.00
8248;DHT22;4164;49.844;8.830;2023-09-19T02:45:16;17.20;1.00
8248;DHT22;4164;49.844;8.830;2023-09-19T02:47:43;17.20;1.00
8248;DHT22;4164;49.844;8.830;2023-09-19T02:50:10;17.10;1.00
8248;DHT22;4164;49.844;8.830;2023-09-19T02:52:36;17.20;1.00
8248;DHT22;4164;49.844;8.830;2023-09-19T02:55:03;17.10;1.00
8248;DHT22;4164;49.844;8.830;2023-09-19T02:57:30;17.10;1.00
8248;DHT22;4164;49.844;8.830;2023-09-19T02:59:58;17.10;1.00
8248;DHT22;4164;49.844;8.830;2023-09-19T03:02:29;17.00;1.00
8248;DHT22;4164;49.844;8.830;2023-09-19T03:04:58;17.00;1.00
8248;DHT22;4164;49.844;8.830;2023-09-19T03:07:26;16.90;1.00
8248;DHT22;4164;49.844;8.830;2023-09-19T03:09:51;16.90;1.00
8248;DHT22;4164;49.844;8.830;2023-09-19T03:12:18;16.90;1.00
8248;DHT22;4164;49.844;8.830;2023-09-19T03:14:43;16.80;1.00
8248;DHT22;4164;49.844;8.830;2023-09-19T03:17:09;16.80;1.00
8248;DHT22;4164;49.844;8.830;2023-09-19T03:19:35;16.70;1.00
8248;DHT22;4164;49.844;8.830;2023-09-19T03:22:03;16.70;1.00
8248;DHT22;4164;49.844;8.830;2023-09-19T03:24:28;16.70;1.00
8248;DHT22;4164;49.844;8.830;2023-09-19T03:26:54;16.70;1.00
8248;DHT22;4164;49.844;8.830;2023-09-19T03:29:20;16.70;1.00
8248;DHT22;4164;49.844;8.830;2023-09-19T03:31:48;16.60;1.00
8248;DHT22;4164;49.844;8.830;2023-09-19T03:34:14;16.70;1.00
8248;DHT22;4164;49.844;8.830;2023-09-19T03:36:40;16.80;1.00
8248;DHT22;4164;49.844;8.830;2023-09-19T03:39:06;16.80;1.00
8248;DHT22;4164;49.844;8.830;2023-09-19T03:41:32;16.80;1.00
8248;DHT22;4164;49.844;8.830;2023-09-19T03:43:58;16.80;1.00
8248;DHT22;4164;49.844;8.830;2023-09-19T03:46:25;16.70;1.00
8248;DHT22;4164;49.844;8.830;2023-09-19T03:48:50;16.60;1.00
8248;DHT22;4164;49.844;8.830;2023-09-19T03:51:16;16.60;1.00
8248;DHT22;4164;49.844;8.830;2023-09-19T03:53:41;16.60;1.00
8248;DHT22;4164;49.844;8.830;2023-09-19T03:56:10;16.50;1.00
8248;DHT22;4164;49.844;8.830;2023-09-19T03:58:35;16.50;1.00
8248;DHT22;4164;49.844;8.830;2023-09-19T04:01:04;16.40;1.00
8248;DHT22;4164;49.844;8.830;2023-09-19T04:03:34;16.30;1.00
8248;DHT22;4164;49.844;8.830;2023-09-19T04:06:11;16.30;1.00
8248;DHT22;4164;49.844;8.830;2023-09-19T04:08:37;16.20;1.00
8248;DHT22;4164;49.844;8.830;2023-09-19T04:11:03;16.10;1.00
8248;DHT22;4164;49.844;8.830;2023-09-19T04:13:28;16.10;1.00
8248;DHT22;4164;49.844;8.830;2023-09-19T04:15:54;16.10;1.00
8248;DHT22;4164;49.844;8.830;2023-09-19T04:18:19;16.10;1.00
8248;DHT22;4164;49.844;8.830;2023-09-19T04:20:49;16.00;1.00
8248;DHT22;4164;49.844;8.830;2023-09-19T04:23:15;16.10;1.00
8248;DHT22;4164;49.844;8.830;2023-09-19T04:25:41;16.10;1.00
8248;DHT22;4164;49.844;8.830;2023-09-19T04:28:07;16.10;1.00
8248;DHT22;4164;49.844;8.830;2023-09-19T04:30:32;16.00;1.00
8248;DHT22;4164;49.844;8.830;2023-09-19T04:32:58;16.00;1.00
8248;DHT22;4164;49.844;8.830;2023-09-19T04:35:24;16.00;1.00
8248;DHT22;4164;49.844;8.830;2023-09-19T04:37:52;15.90;1.00
8248;DHT22;4164;49.844;8.830;2023-09-19T04:40:18;15.90;1.00
8248;DHT22;4164;49.844;8.830;2023-09-19T04:42:44;15.90;1.00
8248;DHT22;4164;49.844;8.830;2023-09-19T04:45:11;15.80;1.00
8248;DHT22;4164;49.844;8.830;2023-09-19T04:47:38;15.80;1.00
8248;DHT22;4164;49.844;8.830;2023-09-19T04:50:09;15.80;1.00
8248;DHT22;4164;49.844;8.830;2023-09-19T04:52:40;15.80;1.00
8248;DHT22;4164;49.844;8.830;2023-09-19T04:57:36;15.90;1.00
8248;DHT22;4164;49.844;8.830;2023-09-19T05:00:02;15.90;1.00
8248;DHT22;4164;49.844;8.830;2023-09-19T05:02:32;16.00;1.00
8248;DHT22;4164;49.844;8.830;2023-09-19T05:05:01;16.00;1.00
8248;DHT22;4164;49.844;8.830;2023-09-19T05:07:26;16.10;99.90
8248;DHT22;4164;49.844;8.830;2023-09-19T05:09:52;16.10;99.90
8248;DHT22;4164;49.844;8.830;2023-09-19T05:12:17;16.10;99.90
8248;DHT22;4164;49.844;8.830;2023-09-19T05:14:45;16.10;99.90
8248;DHT22;4164;49.844;8.830;2023-09-19T05:17:10;16.10;99.90
8248;DHT22;4164;49.844;8.830;2023-09-19T05:19:36;16.10;99.90
8248;DHT22;4164;49.844;8.830;2023-09-19T05:22:02;16.00;99.90
8248;DHT22;4164;49.844;8.830;2023-09-19T05:24:29;16.00;99.90
8248;DHT22;4164;49.844;8.830;2023-09-19T05:26:58;16.00;99.90
8248;DHT22;4164;49.844;8.830;2023-09-19T05:29:24;16.00;99.90
8248;DHT22;4164;49.844;8.830;2023-09-19T05:31:50;16.00;99.90
8248;DHT22;4164;49.844;8.830;2023-09-19T05:34:16;16.00;99.90
8248;DHT22;4164;49.844;8.830;2023-09-19T05:36:42;16.00;99.90
8248;DHT22;4164;49.844;8.830;2023-09-19T05:39:08;15.90;1.00
8248;DHT22;4164;49.844;8.830;2023-09-19T05:41:35;15.90;1.00
8248;DHT22;4164;49.844;8.830;2023-09-19T05:44:03;15.90;1.00
8248;DHT22;4164;49.844;8.830;2023-09-19T05:46:32;16.00;1.00
8248;DHT22;4164;49.844;8.830;2023-09-19T05:48:58;16.00;99.90
8248;DHT22;4164;49.844;8.830;2023-09-19T05:51:23;15.90;99.90
8248;DHT22;4164;49.844;8.830;2023-09-19T05:53:49;15.90;99.90
8248;DHT22;4164;49.844;8.830;2023-09-19T05:56:15;16.00;99.90
8248;DHT22;4164;49.844;8.830;2023-09-19T05:58:43;16.00;99.90
8248;DHT22;4164;49.844;8.830;2023-09-19T06:01:09;16.00;99.90
8248;DHT22;4164;49.844;8.830;2023-09-19T06:03:35;16.00;99.90
8248;DHT22;4164;49.844;8.830;2023-09-19T06:06:04;16.10;99.90
8248;DHT22;4164;49.844;8.830;2023-09-19T06:08:32;16.10;99.90
8248;DHT22;4164;49.844;8.830;2023-09-19T06:10:59;16.10;99.90
8248;DHT22;4164;49.844;8.830;2023-09-19T06:13:24;16.20;99.90
8248;DHT22;4164;49.844;8.830;2023-09-19T06:15:52;16.20;1.00
8248;DHT22;4164;49.844;8.830;2023-09-19T06:18:17;16.20;1.00
8248;DHT22;4164;49.844;8.830;2023-09-19T06:20:48;16.30;1.00
8248;DHT22;4164;49.844;8.830;2023-09-19T06:23:16;16.30;99.90
8248;DHT22;4164;49.844;8.830;2023-09-19T06:25:42;16.30;92.30
8248;DHT22;4164;49.844;8.830;2023-09-19T06:28:09;16.40;1.00
8248;DHT22;4164;49.844;8.830;2023-09-19T06:30:38;16.50;1.00
8248;DHT22;4164;49.844;8.830;2023-09-19T06:33:07;16.60;1.00
8248;DHT22;4164;49.844;8.830;2023-09-19T06:35:33;16.60;99.90
8248;DHT22;4164;49.844;8.830;2023-09-19T06:38:02;16.80;99.90
8248;DHT22;4164;49.844;8.830;2023-09-19T06:40:28;16.70;46.90
8248;DHT22;4164;49.844;8.830;2023-09-19T06:42:56;16.80;1.00
8248;DHT22;4164;49.844;8.830;2023-09-19T06:45:22;16.90;99.90
8248;DHT22;4164;49.844;8.830;2023-09-19T06:47:49;16.90;99.90
8248;DHT22;4164;49.844;8.830;2023-09-19T06:50:22;16.90;99.90
8248;DHT22;4164;49.844;8.830;2023-09-19T06:52:55;16.90;99.90
8248;DHT22;4164;49.844;8.830;2023-09-19T06:55:22;16.90;99.90
8248;DHT22;4164;49.844;8.830;2023-09-19T06:57:53;16.90;99.90
8248;DHT22;4164;49.844;8.830;2023-09-19T07:00:22;16.80;99.90
8248;DHT22;4164;49.844;8.830;2023-09-19T07:03:02;16.90;99.90
8248;DHT22;4164;49.844;8.830;2023-09-19T07:05:30;16.80;99.90
8248;DHT22;4164;49.844;8.830;2023-09-19T07:07:57;16.80;99.90
8248;DHT22;4164;49.844;8.830;2023-09-19T07:10:29;16.80;99.90
8248;DHT22;4164;49.844;8.830;2023-09-19T07:13:00;16.90;99.90
8248;DHT22;4164;49.844;8.830;2023-09-19T07:15:26;17.00;99.90
8248;DHT22;4164;49.844;8.830;2023-09-19T07:17:52;16.90;99.90
8248;DHT22;4164;49.844;8.830;2023-09-19T07:20:19;17.00;96.10
8248;DHT22;4164;49.844;8.830;2023-09-19T07:22:45;16.90;99.90
8248;DHT22;4164;49.844;8.830;2023-09-19T07:25:10;17.00;99.90
8248;DHT22;4164;49.844;8.830;2023-09-19T07:27:40;17.20;99.90
8248;DHT22;4164;49.844;8.830;2023-09-19T07:30:07;17.20;1.00
8248;DHT22;4164;49.844;8.830;2023-09-19T07:32:34;17.00;1.00
8248;DHT22;4164;49.844;8.830;2023-09-19T07:35:02;17.20;1.00
8248;DHT22;4164;49.844;8.830;2023-09-19T07:37:29;17.30;1.00
8248;DHT22;4164;49.844;8.830;2023-09-19T07:39:56;17.30;99.90
8248;DHT22;4164;49.844;8.830;2023-09-19T07:42:22;17.30;99.90
8248;DHT22;4164;49.844;8.830;2023-09-19T07:44:48;17.30;99.90
8248;DHT22;4164;49.844;8.830;2023-09-19T07:47:16;17.30;99.90
8248;DHT22;4164;49.844;8.830;2023-09-19T07:49:42;17.40;99.90
8248;DHT22;4164;49.844;8.830;2023-09-19T07:52:08;17.30;99.90
8248;DHT22;4164;49.844;8.830;2023-09-19T07:54:35;17.20;99.90
8248;DHT22;4164;49.844;8.830;2023-09-19T07:57:04;17.40;99.90
8248;DHT22;4164;49.844;8.830;2023-09-19T07:59:29;17.30;99.90
8248;DHT22;4164;49.844;8.830;2023-09-19T08:01:55;17.50;99.90
8248;DHT22;4164;49.844;8.830;2023-09-19T08:04:20;17.60;99.90
8248;DHT22;4164;49.844;8.830;2023-09-19T08:06:46;17.70;99.90
8248;DHT22;4164;49.844;8.830;2023-09-19T08:09:12;17.50;96.30
8248;DHT22;4164;49.844;8.830;2023-09-19T08:11:41;17.50;98.70
8248;DHT22;4164;49.844;8.830;2023-09-19T08:14:07;17.70;78.70
8248;DHT22;4164;49.844;8.830;2023-09-19T08:16:34;18.00;15.70
8248;DHT22;4164;49.844;8.830;2023-09-19T08:18:59;17.80;1.00
8248;DHT22;4164;49.844;8.830;2023-09-19T08:21:25;17.80;4.30
8248;DHT22;4164;49.844;8.830;2023-09-19T08:23:53;17.80;1.00
8248;DHT22;4164;49.844;8.830;2023-09-19T08:26:18;17.80;1.00
8248;DHT22;4164;49.844;8.830;2023-09-19T08:28:48;17.70;1.00
8248;DHT22;4164;49.844;8.830;2023-09-19T08:31:13;17.60;1.00
8248;DHT22;4164;49.844;8.830;2023-09-19T08:33:39;18.00;1.00
8248;DHT22;4164;49.844;8.830;2023-09-19T08:36:06;17.70;1.00
8248;DHT22;4164;49.844;8.830;2023-09-19T08:38:35;18.00;1.00
8248;DHT22;4164;49.844;8.830;2023-09-19T08:41:04;17.60;1.00
8248;DHT22;4164;49.844;8.830;2023-09-19T08:43:30;17.80;1.00
8248;DHT22;4164;49.844;8.830;2023-09-19T08:46:13;17.90;1.00
8248;DHT22;4164;49.844;8.830;2023-09-19T08:48:54;17.90;1.00
8248;DHT22;4164;49.844;8.830;2023-09-19T08:51:42;17.80;1.00
8248;DHT22;4164;49.844;8.830;2023-09-19T08:54:24;18.00;1.00
8248;DHT22;4164;49.844;8.830;2023-09-19T08:56:54;17.90;1.00
8248;DHT22;4164;49.844;8.830;2023-09-19T08:59:22;18.30;1.00
8248;DHT22;4164;49.844;8.830;2023-09-19T09:01:53;18.40;1.00
8248;DHT22;4164;49.844;8.830;2023-09-19T09:04:19;18.50;1.00
8248;DHT22;4164;49.844;8.830;2023-09-19T09:06:46;18.70;1.00
8248;DHT22;4164;49.844;8.830;2023-09-19T09:09:14;18.50;1.00
8248;DHT22;4164;49.844;8.830;2023-09-19T09:11:40;18.30;1.00
8248;DHT22;4164;49.844;8.830;2023-09-19T09:14:06;18.40;1.00
8248;DHT22;4164;49.844;8.830;2023-09-19T09:16:35;18.20;99.90
8248;DHT22;4164;49.844;8.830;2023-09-19T09:19:01;18.40;99.90
8248;DHT22;4164;49.844;8.830;2023-09-19T09:21:27;18.70;99.90
8248;DHT22;4164;49.844;8.830;2023-09-19T09:23:54;19.30;99.90
8248;DHT22;4164;49.844;8.830;2023-09-19T09:26:43;19.40;99.90
8248;DHT22;4164;49.844;8.830;2023-09-19T09:29:09;19.00;99.90
8248;DHT22;4164;49.844;8.830;2023-09-19T09:31:34;19.00;99.90
8248;DHT22;4164;49.844;8.830;2023-09-19T09:34:00;19.20;99.90
8248;DHT22;4164;49.844;8.830;2023-09-19T09:36:39;18.70;99.90
8248;DHT22;4164;49.844;8.830;2023-09-19T09:39:07;18.80;99.90
8248;DHT22;4164;49.844;8.830;2023-09-19T09:41:44;19.10;99.90
8248;DHT22;4164;49.844;8.830;2023-09-19T09:44:18;19.10;99.90
8248;DHT22;4164;49.844;8.830;2023-09-19T09:46:45;19.20;99.90
8248;DHT22;4164;49.844;8.830;2023-09-19T09:49:40;19.30;99.90
8248;DHT22;4164;49.844;8.830;2023-09-19T09:52:07;19.80;99.90
8248;DHT22;4164;49.844;8.830;2023-09-19T09:54:35;19.80;99.90
8248;DHT22;4164;49.844;8.830;2023-09-19T09:59:54;19.20;99.90
8248;DHT22;4164;49.844;8.830;2023-09-19T10:02:27;19.50;99.90
8248;DHT22;4164;49.844;8.830;2023-09-19T10:05:12;19.70;99.90
8248;DHT22;4164;49.844;8.830;2023-09-19T10:07:48;19.50;99.90
8248;DHT22;4164;49.844;8.830;2023-09-19T10:10:37;19.70;99.90
8248;DHT22;4164;49.844;8.830;2023-09-19T10:13:07;19.70;99.90
8248;DHT22;4164;49.844;8.830;2023-09-19T10:15:33;19.90;99.90
8248;DHT22;4164;49.844;8.830;2023-09-19T10:18:04;19.80;99.90
8248;DHT22;4164;49.844;8.830;2023-09-19T10:20:30;20.10;99.90
8248;DHT22;4164;49.844;8.830;2023-09-19T10:23:09;19.50;99.90
8248;DHT22;4164;49.844;8.830;2023-09-19T10:25:37;19.50;99.90
8248;DHT22;4164;49.844;8.830;2023-09-19T10:28:06;19.80;99.90
8248;DHT22;4164;49.844;8.830;2023-09-19T10:30:46;19.90;99.90
8248;DHT22;4164;49.844;8.830;2023-09-19T10:33:17;20.40;99.90
8248;DHT22;4164;49.844;8.830;2023-09-19T10:35:45;20.60;99.90
8248;DHT22;4164;49.844;8.830;2023-09-19T10:38:17;21.60;99.90
8248;DHT22;4164;49.844;8.830;2023-09-19T10:40:44;22.30;99.90
8248;DHT22;4164;49.844;8.830;2023-09-19T10:43:16;22.10;99.90
8248;DHT22;4164;49.844;8.830;2023-09-19T10:45:44;22.60;99.90
8248;DHT22;4164;49.844;8.830;2023-09-19T10:48:12;23.00;99.90
8248;DHT22;4164;49.844;8.830;2023-09-19T10:51:02;23.30;99.90
8248;DHT22;4164;49.844;8.830;2023-09-19T10:53:48;22.40;99.90
8248;DHT22;4164;49.844;8.830;2023-09-19T10:56:29;24.10;99.90
8248;DHT22;4164;49.844;8.830;2023-09-19T10:59:10;25.30;99.90
8248;DHT22;4164;49.844;8.830;2023-09-19T11:01:45;24.40;99.90
8248;DHT22;4164;49.844;8.830;2023-09-19T11:04:35;23.80;99.90
8248;DHT22;4164;49.844;8.830;2023-09-19T11:07:08;24.70;99.90
8248;DHT22;4164;49.844;8.830;2023-09-19T11:09:53;25.80;99.90
8248;DHT22;4164;49.844;8.830;2023-09-19T11:14:58;27.80;99.90
8248;DHT22;4164;49.844;8.830;2023-09-19T11:17:32;26.30;99.90
8248;DHT22;4164;49.844;8.830;2023-09-19T11:23:16;26.40;99.90
8248;DHT22;4164;49.844;8.830;2023-09-19T11:25:41;27.20;99.90
8248;DHT22;4164;49.844;8.830;2023-09-19T11:30:44;26.80;99.90
8248;DHT22;4164;49.844;8.830;2023-09-19T11:36:03;27.50;99.90
8248;DHT22;4164;49.844;8.830;2023-09-19T11:49:30;24.20;99.90
8248;DHT22;4164;49.844;8.830;2023-09-19T11:52:01;24.00;99.90
8248;DHT22;4164;49.844;8.830;2023-09-19T11:54:28;23.20;99.90
8248;DHT22;4164;49.844;8.830;2023-09-19T11:56:58;22.20;99.90
8248;DHT22;4164;49.844;8.830;2023-09-19T11:59:28;22.50;99.90
8248;DHT22;4164;49.844;8.830;2023-09-19T12:02:05;24.00;99.90
8248;DHT22;4164;49.844;8.830;2023-09-19T12:04:35;24.50;99.90
8248;DHT22;4164;49.844;8.830;2023-09-19T12:07:06;24.00;99.90
8248;DHT22;4164;49.844;8.830;2023-09-19T12:09:38;24.20;99.90
8248;DHT22;4164;49.844;8.830;2023-09-19T12:12:04;23.80;99.90
8248;DHT22;4164;49.844;8.830;2023-09-19T12:14:30;24.90;99.90
8248;DHT22;4164;49.844;8.830;2023-09-19T12:16:57;23.60;99.90
8248;DHT22;4164;49.844;8.830;2023-09-19T12:19:24;23.70;99.90
8248;DHT22;4164;49.844;8.830;2023-09-19T12:22:03;26.20;99.90
8248;DHT22;4164;49.844;8.830;2023-09-19T12:24:36;26.70;99.90
8248;DHT22;4164;49.844;8.830;2023-09-19T12:27:05;26.80;99.90
8248;DHT22;4164;49.844;8.830;2023-09-19T12:29:32;27.60;99.90
8248;DHT22;4164;49.844;8.830;2023-09-19T12:32:06;26.20;99.90
8248;DHT22;4164;49.844;8.830;2023-09-19T12:34:33;27.70;99.90
8248;DHT22;4164;49.844;8.830;2023-09-19T12:37:09;27.30;99.90
8248;DHT22;4164;49.844;8.830;2023-09-19T12:39:50;25.20;99.90
8248;DHT22;4164;49.844;8.830;2023-09-19T12:42:20;24.00;99.90
8248;DHT22;4164;49.844;8.830;2023-09-19T12:44:50;24.60;99.90
8248;DHT22;4164;49.844;8.830;2023-09-19T12:47:23;24.60;99.90
8248;DHT22;4164;49.844;8.830;2023-09-19T12:50:12;25.60;99.90
8248;DHT22;4164;49.844;8.830;2023-09-19T12:52:47;25.70;99.90
8248;DHT22;4164;49.844;8.830;2023-09-19T12:57:59;26.10;99.90
8248;DHT22;4164;49.844;8.830;2023-09-19T13:00:35;27.50;99.90
8248;DHT22;4164;49.844;8.830;2023-09-19T13:03:29;26.00;99.90
8248;DHT22;4164;49.844;8.830;2023-09-19T13:06:01;25.80;99.90
8248;DHT22;4164;49.844;8.830;2023-09-19T13:08:32;25.90;99.90
8248;DHT22;4164;49.844;8.830;2023-09-19T13:16:11;28.00;99.90
8248;DHT22;4164;49.844;8.830;2023-09-19T13:18:49;27.00;99.90
8248;DHT22;4164;49.844;8.830;2023-09-19T13:21:31;28.50;99.90
8248;DHT22;4164;49.844;8.830;2023-09-19T13:24:24;26.80;99.90
8248;DHT22;4164;49.844;8.830;2023-09-19T13:26:54;24.60;98.50
8248;DHT22;4164;49.844;8.830;2023-09-19T13:29:20;24.20;99.90
8248;DHT22;4164;49.844;8.830;2023-09-19T13:31:49;24.50;99.90
8248;DHT22;4164;49.844;8.830;2023-09-19T13:34:16;23.20;97.70
8248;DHT22;4164;49.844;8.830;2023-09-19T13:36:43;23.70;99.80
8248;DHT22;4164;49.844;8.830;2023-09-19T13:39:08;24.20;99.90
8248;DHT22;4164;49.844;8.830;2023-09-19T13:41:35;25.10;99.90
8248;DHT22;4164;49.844;8.830;2023-09-19T13:44:04;24.80;99.90
8248;DHT22;4164;49.844;8.830;2023-09-19T13:46:30;25.40;99.90
8248;DHT22;4164;49.844;8.830;2023-09-19T13:48:58;24.60;97.20
8248;DHT22;4164;49.844;8.830;2023-09-19T13:51:26;24.20;97.70
8248;DHT22;4164;49.844;8.830;2023-09-19T13:53:51;23.30;96.00
8248;DHT22;4164;49.844;8.830;2023-09-19T13:56:17;23.00;97.80
8248;DHT22;4164;49.844;8.830;2023-09-19T13:58:42;23.50;99.90
8248;DHT22;4164;49.844;8.830;2023-09-19T14:01:08;23.80;99.90
8248;DHT22;4164;49.844;8.830;2023-09-19T14:03:39;24.60;99.90
8248;DHT22;4164;49.844;8.830;2023-09-19T14:06:07;24.00;99.90
8248;DHT22;4164;49.844;8.830;2023-09-19T14:08:33;23.60;99.90
8248;DHT22;4164;49.844;8.830;2023-09-19T14:11:01;22.70;99.00
8248;DHT22;4164;49.844;8.830;2023-09-19T14:13:30;22.20;99.40
8248;DHT22;4164;49.844;8.830;2023-09-19T14:15:56;22.40;99.90
8248;DHT22;4164;49.844;8.830;2023-09-19T14:18:22;22.20;99.90
8248;DHT22;4164;49.844;8.830;2023-09-19T14:20:47;22.10;99.90
8248;DHT22;4164;49.844;8.830;2023-09-19T14:23:13;21.70;99.90
8248;DHT22;4164;49.844;8.830;2023-09-19T14:25:38;21.80;99.90
8248;DHT22;4164;49.844;8.830;2023-09-19T14:28:05;21.80;99.90
8248;DHT22;4164;49.844;8.830;2023-09-19T14:30:32;21.70;99.90
8248;DHT22;4164;49.844;8.830;2023-09-19T14:32:58;21.70;99.90
8248;DHT22;4164;49.844;8.830;2023-09-19T14:35:24;21.90;99.90
8248;DHT22;4164;49.844;8.830;2023-09-19T14:37:50;21.70;99.90
8248;DHT22;4164;49.844;8.830;2023-09-19T14:40:16;21.60;99.90
8248;DHT22;4164;49.844;8.830;2023-09-19T14:42:45;21.50;99.90
8248;DHT22;4164;49.844;8.830;2023-09-19T14:45:11;21.70;99.90
8248;DHT22;4164;49.844;8.830;2023-09-19T14:47:37;21.60;99.90
8248;DHT22;4164;49.844;8.830;2023-09-19T14:50:03;21.60;99.90
8248;DHT22;4164;49.844;8.830;2023-09-19T14:52:34;21.60;99.90
8248;DHT22;4164;49.844;8.830;2023-09-19T14:55:01;21.80;99.90
8248;DHT22;4164;49.844;8.830;2023-09-19T14:57:27;22.10;99.90
8248;DHT22;4164;49.844;8.830;2023-09-19T14:59:53;22.40;99.90
8248;DHT22;4164;49.844;8.830;2023-09-19T15:02:18;22.20;99.90
8248;DHT22;4164;49.844;8.830;2023-09-19T15:04:44;22.00;99.90
8248;DHT22;4164;49.844;8.830;2023-09-19T15:07:13;21.90;99.90
8248;DHT22;4164;49.844;8.830;2023-09-19T15:09:41;21.70;99.90
8248;DHT22;4164;49.844;8.830;2023-09-19T15:12:06;22.00;99.90
8248;DHT22;4164;49.844;8.830;2023-09-19T15:14:32;22.00;99.90
8248;DHT22;4164;49.844;8.830;2023-09-19T15:17:00;21.90;99.90
8248;DHT22;4164;49.844;8.830;2023-09-19T15:19:26;21.80;99.90
8248;DHT22;4164;49.844;8.830;2023-09-19T15:21:51;21.60;99.90
8248;DHT22;4164;49.844;8.830;2023-09-19T15:24:17;21.80;99.90
8248;DHT22;4164;49.844;8.830;2023-09-19T15:26:43;21.90;99.90
8248;DHT22;4164;49.844;8.830;2023-09-19T15:29:10;22.00;99.90
8248;DHT22;4164;49.844;8.830;2023-09-19T15:31:36;21.90;99.90
8248;DHT22;4164;49.844;8.830;2023-09-19T15:34:02;21.90;99.90
8248;DHT22;4164;49.844;8.830;2023-09-19T15:36:29;21.90;99.90
8248;DHT22;4164;49.844;8.830;2023-09-19T15:39:05;21.70;99.90
8248;DHT22;4164;49.844;8.830;2023-09-19T15:41:36;21.80;99.90
8248;DHT22;4164;49.844;8.830;2023-09-19T15:44:12;21.90;99.90
8248;DHT22;4164;49.844;8.830;2023-09-19T15:46:38;21.80;99.90
8248;DHT22;4164;49.844;8.830;2023-09-19T15:49:03;21.70;99.90
8248;DHT22;4164;49.844;8.830;2023-09-19T15:51:29;21.70;99.90
8248;DHT22;4164;49.844;8.830;2023-09-19T15:53:57;21.70;99.90
8248;DHT22;4164;49.844;8.830;2023-09-19T15:56:23;21.60;99.90
8248;DHT22;4164;49.844;8.830;2023-09-19T15:58:54;21.60;99.90
8248;DHT22;4164;49.844;8.830;2023-09-19T16:01:21;21.60;99.90
8248;DHT22;4164;49.844;8.830;2023-09-19T16:03:48;21.70;99.90
8248;DHT22;4164;49.844;8.830;2023-09-19T16:06:16;21.90;99.90
8248;DHT22;4164;49.844;8.830;2023-09-19T16:08:47;21.70;99.90
8248;DHT22;4164;49.844;8.830;2023-09-19T16:11:14;21.80;99.90
8248;DHT22;4164;49.844;8.830;2023-09-19T16:13:41;21.80;99.90
8248;DHT22;4164;49.844;8.830;2023-09-19T16:16:08;21.80;99.90
8248;DHT22;4164;49.844;8.830;2023-09-19T16:18:38;21.60;99.90
8248;DHT22;4164;49.844;8.830;2023-09-19T16:21:05;21.60;99.90
8248;DHT22;4164;49.844;8.830;2023-09-19T16:23:31;21.50;99.90
8248;DHT22;4164;49.844;8.830;2023-09-19T16:26:08;21.40;99.90
8248;DHT22;4164;49.844;8.830;2023-09-19T16:28:39;21.20;99.90
8248;DHT22;4164;49.844;8.830;2023-09-19T16:31:06;21.30;99.90
8248;DHT22;4164;49.844;8.830;2023-09-19T16:33:33;21.20;99.90
8248;DHT22;4164;49.844;8.830;2023-09-19T16:35:59;21.20;99.90
8248;DHT22;4164;49.844;8.830;2023-09-19T16:38:28;21.20;99.90
8248;DHT22;4164;49.844;8.830;2023-09-19T16:40:57;21.10;99.90
8248;DHT22;4164;49.844;8.830;2023-09-19T16:43:24;21.00;99.90
8248;DHT22;4164;49.844;8.830;2023-09-19T16:45:58;20.90;99.90
8248;DHT22;4164;49.844;8.830;2023-09-19T16:48:25;20.80;99.90
8248;DHT22;4164;49.844;8.830;2023-09-19T16:51:04;20.70;99.90
8248;DHT22;4164;49.844;8.830;2023-09-19T16:53:30;20.70;99.90
8248;DHT22;4164;49.844;8.830;2023-09-19T16:56:07;20.60;99.90
8248;DHT22;4164;49.844;8.830;2023-09-19T16:58:41;20.50;99.90
8248;DHT22;4164;49.844;8.830;2023-09-19T17:01:12;20.50;99.90
8248;DHT22;4164;49.844;8.830;2023-09-19T17:03:40;20.40;99.90
8248;DHT22;4164;49.844;8.830;2023-09-19T17:06:07;20.30;99.90
8248;DHT22;4164;49.844;8.830;2023-09-19T17:08:34;20.30;99.90
8248;DHT22;4164;49.844;8.830;2023-09-19T17:11:10;20.20;99.90